sensor_id;sensor_type;location;lat;lon;timestamp;P1;durP1;ratioP1;P2;durP2;ratioP2
30398;SDS011;17195;50.838;7.214;2023-05-10T00:00:11;14.18;;;9.98;;
30398;SDS011;17195;50.838;7.214;2023-05-10T00:02:37;13.27;;;10.48;;
30398;SDS011;17195;50.838;7.214;2023-05-10T00:05:03;14.55;;;9.95;;
30398;SDS011;17195;50.838;7.214;2023-05-10T00:07:29;14.27;;;10.90;;
30398;SDS011;17195;50.838;7.214;2023-05-10T00:09:55;13.38;;;10.25;;
30398;SDS011;17195;50.838;7.214;2023-05-10T00:12:21;16.15;;;11.38;;
30398;SDS011;17195;50.838;7.214;2023-05-10T00:14:46;14.35;;;10.25;;
30398;SDS011;17195;50.838;7.214;2023-05-10T00:17:12;16.67;;;10.90;;
30398;SDS011;17195;50.838;7.214;2023-05-10T00:19:37;14.48;;;10.52;;
30398;SDS011;17195;50.838;7.214;2023-05-10T00:22:03;14.93;;;10.35;;
30398;SDS011;17195;50.838;7.214;2023-05-10T00:24:28;17.23;;;10.85;;
30398;SDS011;17195;50.838;7.214;2023-05-10T00:26:54;16.23;;;11.35;;
30398;SDS011;17195;50.838;7.214;2023-05-10T00:29:19;15.57;;;10.93;;
30398;SDS011;17195;50.838;7.214;2023-05-10T00:31:45;16.13;;;11.55;;
30398;SDS011;17195;50.838;7.214;2023-05-10T00:34:11;14.77;;;11.45;;
30398;SDS011;17195;50.838;7.214;2023-05-10T00:36:36;14.35;;;10.93;;
30398;SDS011;17195;50.838;7.214;2023-05-10T00:39:02;14.27;;;11.40;;
30398;SDS011;17195;50.838;7.214;2023-05-10T00:41:28;14.75;;;10.10;;
30398;SDS011;17195;50.838;7.214;2023-05-10T00:43:57;14.10;;;9.73;;
30398;SDS011;17195;50.838;7.214;2023-05-10T00:46:23;12.13;;;9.93;;
30398;SDS011;17195;50.838;7.214;2023-05-10T00:48:49;14.55;;;9.90;;
30398;SDS011;17195;50.838;7.214;2023-05-10T00:51:15;14.57;;;10.00;;
30398;SDS011;17195;50.838;7.214;2023-05-10T00:53:41;14.65;;;9.63;;
30398;SDS011;17195;50.838;7.214;2023-05-10T00:56:07;12.55;;;9.32;;
30398;SDS011;17195;50.838;7.214;2023-05-10T00:58:33;13.45;;;10.02;;
30398;SDS011;17195;50.838;7.214;2023-05-10T01:00:58;12.82;;;9.75;;
30398;SDS011;17195;50.838;7.214;2023-05-10T01:03:25;12.57;;;9.95;;
30398;SDS011;17195;50.838;7.214;2023-05-10T01:05:51;12.23;;;9.88;;
30398;SDS011;17195;50.838;7.214;2023-05-10T01:08:17;12.13;;;8.77;;
30398;SDS011;17195;50.838;7.214;2023-05-10T01:10:43;11.82;;;9.68;;
30398;SDS011;17195;50.838;7.214;2023-05-10T01:13:09;11.10;;;9.00;;
30398;SDS011;17195;50.838;7.214;2023-05-10T01:15:35;10.95;;;8.95;;
30398;SDS011;17195;50.838;7.214;2023-05-10T01:18:01;9.93;;;8.27;;
30398;SDS011;17195;50.838;7.214;2023-05-10T01:20:28;11.18;;;8.30;;
30398;SDS011;17195;50.838;7.214;2023-05-10T01:34:18;7.82;;;6.65;;
30398;SDS011;17195;50.838;7.214;2023-05-10T01:36:51;9.35;;;6.80;;
30398;SDS011;17195;50.838;7.214;2023-05-10T01:39:27;9.32;;;6.78;;
30398;SDS011;17195;50.838;7.214;2023-05-10T01:47:31;7.95;;;6.68;;
30398;SDS011;17195;50.838;7.214;2023-05-10T01:50:04;8.15;;;6.97;;
30398;SDS011;17195;50.838;7.214;2023-05-10T01:52:38;9.27;;;7.28;;
30398;SDS011;17195;50.838;7.214;2023-05-10T01:55:09;8.98;;;6.82;;
30398;SDS011;17195;50.838;7.214;2023-05-10T01:57:39;10.20;;;7.35;;
30398;SDS011;17195;50.838;7.214;2023-05-10T02:00:07;8.25;;;6.88;;
30398;SDS011;17195;50.838;7.214;2023-05-10T02:02:36;9.43;;;7.05;;
30398;SDS011;17195;50.838;7.214;2023-05-10T02:05:04;9.88;;;5.85;;
30398;SDS011;17195;50.838;7.214;2023-05-10T02:07:31;6.63;;;5.30;;
30398;SDS011;17195;50.838;7.214;2023-05-10T02:10:00;9.68;;;5.82;;
30398;SDS011;17195;50.838;7.214;2023-05-10T02:12:29;8.07;;;5.43;;
30398;SDS011;17195;50.838;7.214;2023-05-10T02:14:56;6.60;;;5.18;;
30398;SDS011;17195;50.838;7.214;2023-05-10T02:17:24;7.35;;;4.95;;
30398;SDS011;17195;50.838;7.214;2023-05-10T02:19:50;5.65;;;4.60;;
30398;SDS011;17195;50.838;7.214;2023-05-10T02:22:18;6.18;;;4.40;;
30398;SDS011;17195;50.838;7.214;2023-05-10T02:24:44;4.43;;;3.78;;
30398;SDS011;17195;50.838;7.214;2023-05-10T02:27:11;7.18;;;4.57;;
30398;SDS011;17195;50.838;7.214;2023-05-10T02:29:39;6.30;;;4.15;;
30398;SDS011;17195;50.838;7.214;2023-05-10T02:32:05;4.85;;;4.28;;
30398;SDS011;17195;50.838;7.214;2023-05-10T02:34:33;5.25;;;4.25;;
30398;SDS011;17195;50.838;7.214;2023-05-10T02:36:59;4.25;;;3.40;;
30398;SDS011;17195;50.838;7.214;2023-05-10T02:39:27;4.38;;;3.15;;
30398;SDS011;17195;50.838;7.214;2023-05-10T02:41:54;3.85;;;3.50;;
30398;SDS011;17195;50.838;7.214;2023-05-10T02:44:21;4.28;;;3.38;;
30398;SDS011;17195;50.838;7.214;2023-05-10T02:46:48;4.32;;;3.40;;
30398;SDS011;17195;50.838;7.214;2023-05-10T02:49:13;5.80;;;3.45;;
30398;SDS011;17195;50.838;7.214;2023-05-10T02:51:42;6.25;;;3.70;;
30398;SDS011;17195;50.838;7.214;2023-05-10T02:54:18;6.85;;;3.60;;
30398;SDS011;17195;50.838;7.214;2023-05-10T02:56:53;3.95;;;3.55;;
30398;SDS011;17195;50.838;7.214;2023-05-10T02:59:25;4.78;;;3.38;;
30398;SDS011;17195;50.838;7.214;2023-05-10T03:01:52;3.55;;;3.13;;
30398;SDS011;17195;50.838;7.214;2023-05-10T03:04:18;8.55;;;3.83;;
30398;SDS011;17195;50.838;7.214;2023-05-10T03:06:44;5.60;;;4.00;;
30398;SDS011;17195;50.838;7.214;2023-05-10T03:09:10;5.68;;;4.03;;
30398;SDS011;17195;50.838;7.214;2023-05-10T03:11:55;5.93;;;4.15;;
30398;SDS011;17195;50.838;7.214;2023-05-10T03:14:34;5.65;;;3.85;;
30398;SDS011;17195;50.838;7.214;2023-05-10T03:17:30;6.25;;;4.53;;
30398;SDS011;17195;50.838;7.214;2023-05-10T03:20:08;5.35;;;4.50;;
30398;SDS011;17195;50.838;7.214;2023-05-10T03:22:47;5.88;;;4.65;;
30398;SDS011;17195;50.838;7.214;2023-05-10T03:25:15;6.60;;;4.97;;
30398;SDS011;17195;50.838;7.214;2023-05-10T03:27:43;5.88;;;4.63;;
30398;SDS011;17195;50.838;7.214;2023-05-10T03:30:10;6.25;;;4.82;;
30398;SDS011;17195;50.838;7.214;2023-05-10T03:32:38;5.65;;;4.03;;
30398;SDS011;17195;50.838;7.214;2023-05-10T03:35:09;4.80;;;4.30;;
30398;SDS011;17195;50.838;7.214;2023-05-10T03:37:37;5.05;;;4.18;;
30398;SDS011;17195;50.838;7.214;2023-05-10T03:40:03;4.32;;;3.92;;
30398;SDS011;17195;50.838;7.214;2023-05-10T03:42:29;5.07;;;3.47;;
30398;SDS011;17195;50.838;7.214;2023-05-10T03:44:54;4.05;;;3.55;;
30398;SDS011;17195;50.838;7.214;2023-05-10T03:47:20;3.30;;;2.90;;
30398;SDS011;17195;50.838;7.214;2023-05-10T03:49:45;3.38;;;2.85;;
30398;SDS011;17195;50.838;7.214;2023-05-10T03:52:11;4.18;;;3.78;;
30398;SDS011;17195;50.838;7.214;2023-05-10T03:54:37;7.80;;;4.57;;
30398;SDS011;17195;50.838;7.214;2023-05-10T03:57:02;4.95;;;4.03;;
30398;SDS011;17195;50.838;7.214;2023-05-10T03:59:28;7.47;;;5.05;;
30398;SDS011;17195;50.838;7.214;2023-05-10T04:01:54;6.80;;;5.80;;
30398;SDS011;17195;50.838;7.214;2023-05-10T04:04:20;7.88;;;5.93;;
30398;SDS011;17195;50.838;7.214;2023-05-10T04:06:46;7.35;;;5.90;;
30398;SDS011;17195;50.838;7.214;2023-05-10T04:09:12;9.80;;;6.80;;
30398;SDS011;17195;50.838;7.214;2023-05-10T04:11:38;8.85;;;6.88;;
30398;SDS011;17195;50.838;7.214;2023-05-10T04:14:04;8.40;;;6.65;;
30398;SDS011;17195;50.838;7.214;2023-05-10T04:16:29;8.30;;;6.65;;
30398;SDS011;17195;50.838;7.214;2023-05-10T04:18:55;9.68;;;7.40;;
30398;SDS011;17195;50.838;7.214;2023-05-10T04:21:21;8.85;;;6.68;;
30398;SDS011;17195;50.838;7.214;2023-05-10T04:23:46;10.00;;;7.50;;
30398;SDS011;17195;50.838;7.214;2023-05-10T04:26:12;11.70;;;8.13;;
30398;SDS011;17195;50.838;7.214;2023-05-10T04:28:38;11.30;;;9.05;;
30398;SDS011;17195;50.838;7.214;2023-05-10T04:31:04;13.15;;;8.68;;
30398;SDS011;17195;50.838;7.214;2023-05-10T04:33:31;10.85;;;8.93;;
30398;SDS011;17195;50.838;7.214;2023-05-10T04:35:57;12.85;;;10.00;;
30398;SDS011;17195;50.838;7.214;2023-05-10T04:38:22;13.15;;;9.95;;
30398;SDS011;17195;50.838;7.214;2023-05-10T04:40:48;14.07;;;10.02;;
30398;SDS011;17195;50.838;7.214;2023-05-10T04:43:14;15.80;;;10.73;;
30398;SDS011;17195;50.838;7.214;2023-05-10T04:45:39;13.23;;;10.30;;
30398;SDS011;17195;50.838;7.214;2023-05-10T04:48:05;14.77;;;10.60;;
30398;SDS011;17195;50.838;7.214;2023-05-10T04:50:31;14.13;;;10.10;;
30398;SDS011;17195;50.838;7.214;2023-05-10T04:52:56;15.85;;;11.70;;
30398;SDS011;17195;50.838;7.214;2023-05-10T04:55:23;15.10;;;11.73;;
30398;SDS011;17195;50.838;7.214;2023-05-10T04:57:48;15.85;;;11.50;;
30398;SDS011;17195;50.838;7.214;2023-05-10T05:00:14;15.75;;;10.55;;
30398;SDS011;17195;50.838;7.214;2023-05-10T05:02:43;14.18;;;10.70;;
30398;SDS011;17195;50.838;7.214;2023-05-10T05:05:12;13.98;;;10.82;;
30398;SDS011;17195;50.838;7.214;2023-05-10T05:07:38;12.40;;;10.73;;
30398;SDS011;17195;50.838;7.214;2023-05-10T05:10:06;13.60;;;10.07;;
30398;SDS011;17195;50.838;7.214;2023-05-10T05:12:33;16.30;;;11.55;;
30398;SDS011;17195;50.838;7.214;2023-05-10T05:14:59;16.63;;;12.15;;
30398;SDS011;17195;50.838;7.214;2023-05-10T05:17:25;18.88;;;13.45;;
30398;SDS011;17195;50.838;7.214;2023-05-10T05:19:50;20.30;;;13.55;;
30398;SDS011;17195;50.838;7.214;2023-05-10T05:22:16;18.83;;;13.43;;
30398;SDS011;17195;50.838;7.214;2023-05-10T05:24:42;22.92;;;14.02;;
30398;SDS011;17195;50.838;7.214;2023-05-10T05:27:07;24.45;;;14.75;;
30398;SDS011;17195;50.838;7.214;2023-05-10T05:29:33;20.63;;;14.02;;
30398;SDS011;17195;50.838;7.214;2023-05-10T05:31:58;25.65;;;15.45;;
30398;SDS011;17195;50.838;7.214;2023-05-10T05:34:24;20.17;;;14.60;;
30398;SDS011;17195;50.838;7.214;2023-05-10T05:36:50;23.65;;;16.05;;
30398;SDS011;17195;50.838;7.214;2023-05-10T05:39:16;25.30;;;15.75;;
30398;SDS011;17195;50.838;7.214;2023-05-10T05:41:42;26.63;;;16.60;;
30398;SDS011;17195;50.838;7.214;2023-05-10T05:44:07;24.85;;;16.73;;
30398;SDS011;17195;50.838;7.214;2023-05-10T05:46:33;27.13;;;16.50;;
30398;SDS011;17195;50.838;7.214;2023-05-10T05:48:59;25.63;;;18.45;;
30398;SDS011;17195;50.838;7.214;2023-05-10T05:51:24;25.80;;;18.30;;
30398;SDS011;17195;50.838;7.214;2023-05-10T05:53:50;28.98;;;18.73;;
30398;SDS011;17195;50.838;7.214;2023-05-10T05:56:16;28.40;;;19.27;;
30398;SDS011;17195;50.838;7.214;2023-05-10T05:58:42;26.08;;;18.77;;
30398;SDS011;17195;50.838;7.214;2023-05-10T06:01:09;30.95;;;20.85;;
30398;SDS011;17195;50.838;7.214;2023-05-10T06:03:34;30.63;;;20.58;;
30398;SDS011;17195;50.838;7.214;2023-05-10T06:06:00;26.83;;;18.95;;
30398;SDS011;17195;50.838;7.214;2023-05-10T06:08:25;28.63;;;20.95;;
30398;SDS011;17195;50.838;7.214;2023-05-10T06:10:51;32.30;;;20.73;;
30398;SDS011;17195;50.838;7.214;2023-05-10T06:13:16;28.10;;;19.30;;
30398;SDS011;17195;50.838;7.214;2023-05-10T06:15:42;28.60;;;18.83;;
30398;SDS011;17195;50.838;7.214;2023-05-10T06:18:07;28.92;;;19.33;;
30398;SDS011;17195;50.838;7.214;2023-05-10T06:20:33;26.77;;;19.83;;
30398;SDS011;17195;50.838;7.214;2023-05-10T06:22:59;25.55;;;17.88;;
30398;SDS011;17195;50.838;7.214;2023-05-10T06:25:24;28.25;;;18.92;;
30398;SDS011;17195;50.838;7.214;2023-05-10T06:27:50;28.20;;;18.30;;
30398;SDS011;17195;50.838;7.214;2023-05-10T06:30:20;30.00;;;18.15;;
30398;SDS011;17195;50.838;7.214;2023-05-10T06:32:48;21.85;;;15.90;;
30398;SDS011;17195;50.838;7.214;2023-05-10T06:35:13;28.13;;;16.75;;
30398;SDS011;17195;50.838;7.214;2023-05-10T06:37:39;24.67;;;16.30;;
30398;SDS011;17195;50.838;7.214;2023-05-10T06:40:05;27.02;;;16.65;;
30398;SDS011;17195;50.838;7.214;2023-05-10T06:42:31;25.90;;;17.25;;
30398;SDS011;17195;50.838;7.214;2023-05-10T06:44:57;21.85;;;14.35;;
30398;SDS011;17195;50.838;7.214;2023-05-10T06:47:22;19.67;;;15.05;;
30398;SDS011;17195;50.838;7.214;2023-05-10T06:49:48;25.85;;;14.75;;
30398;SDS011;17195;50.838;7.214;2023-05-10T06:52:14;21.23;;;14.30;;
30398;SDS011;17195;50.838;7.214;2023-05-10T06:54:39;19.73;;;13.93;;
30398;SDS011;17195;50.838;7.214;2023-05-10T06:57:05;18.23;;;13.82;;
30398;SDS011;17195;50.838;7.214;2023-05-10T06:59:31;21.90;;;13.32;;
30398;SDS011;17195;50.838;7.214;2023-05-10T07:01:57;17.02;;;11.98;;
30398;SDS011;17195;50.838;7.214;2023-05-10T07:04:22;16.85;;;11.95;;
30398;SDS011;17195;50.838;7.214;2023-05-10T07:06:48;20.15;;;12.45;;
30398;SDS011;17195;50.838;7.214;2023-05-10T07:09:14;18.17;;;14.07;;
30398;SDS011;17195;50.838;7.214;2023-05-10T07:11:40;19.65;;;13.40;;
30398;SDS011;17195;50.838;7.214;2023-05-10T07:14:06;19.58;;;12.13;;
30398;SDS011;17195;50.838;7.214;2023-05-10T07:16:31;18.73;;;13.73;;
30398;SDS011;17195;50.838;7.214;2023-05-10T07:18:57;15.73;;;12.38;;
30398;SDS011;17195;50.838;7.214;2023-05-10T07:21:22;20.38;;;13.48;;
30398;SDS011;17195;50.838;7.214;2023-05-10T07:23:53;16.83;;;12.88;;
30398;SDS011;17195;50.838;7.214;2023-05-10T07:26:19;19.40;;;13.20;;
30398;SDS011;17195;50.838;7.214;2023-05-10T07:28:45;18.40;;;13.48;;
30398;SDS011;17195;50.838;7.214;2023-05-10T07:31:11;18.15;;;12.27;;
30398;SDS011;17195;50.838;7.214;2023-05-10T07:33:37;16.02;;;11.68;;
30398;SDS011;17195;50.838;7.214;2023-05-10T07:36:02;16.48;;;12.35;;
30398;SDS011;17195;50.838;7.214;2023-05-10T07:38:28;16.60;;;12.27;;
30398;SDS011;17195;50.838;7.214;2023-05-10T07:40:54;19.55;;;12.15;;
30398;SDS011;17195;50.838;7.214;2023-05-10T07:43:19;18.98;;;12.25;;
30398;SDS011;17195;50.838;7.214;2023-05-10T07:45:45;17.08;;;11.50;;
30398;SDS011;17195;50.838;7.214;2023-05-10T07:48:10;18.70;;;11.43;;
30398;SDS011;17195;50.838;7.214;2023-05-10T07:50:36;16.30;;;11.60;;
30398;SDS011;17195;50.838;7.214;2023-05-10T07:53:01;17.27;;;10.65;;
30398;SDS011;17195;50.838;7.214;2023-05-10T07:55:27;15.23;;;10.77;;
30398;SDS011;17195;50.838;7.214;2023-05-10T07:57:52;17.33;;;9.90;;
30398;SDS011;17195;50.838;7.214;2023-05-10T08:00:18;15.35;;;9.88;;
30398;SDS011;17195;50.838;7.214;2023-05-10T08:02:45;16.50;;;10.95;;
30398;SDS011;17195;50.838;7.214;2023-05-10T08:05:11;18.00;;;10.82;;
30398;SDS011;17195;50.838;7.214;2023-05-10T08:07:37;14.63;;;9.98;;
30398;SDS011;17195;50.838;7.214;2023-05-10T08:10:03;14.38;;;10.05;;
30398;SDS011;17195;50.838;7.214;2023-05-10T08:12:29;13.80;;;9.52;;
30398;SDS011;17195;50.838;7.214;2023-05-10T08:14:55;16.25;;;11.25;;
30398;SDS011;17195;50.838;7.214;2023-05-10T08:17:21;17.65;;;10.63;;
30398;SDS011;17195;50.838;7.214;2023-05-10T08:19:46;13.85;;;10.23;;
30398;SDS011;17195;50.838;7.214;2023-05-10T08:22:12;15.90;;;9.98;;
30398;SDS011;17195;50.838;7.214;2023-05-10T08:24:38;14.43;;;9.65;;
30398;SDS011;17195;50.838;7.214;2023-05-10T08:27:07;13.13;;;9.02;;
30398;SDS011;17195;50.838;7.214;2023-05-10T08:29:33;13.30;;;9.93;;
30398;SDS011;17195;50.838;7.214;2023-05-10T08:31:59;11.32;;;8.02;;
30398;SDS011;17195;50.838;7.214;2023-05-10T08:34:26;9.82;;;7.57;;
30398;SDS011;17195;50.838;7.214;2023-05-10T08:36:51;12.32;;;7.50;;
30398;SDS011;17195;50.838;7.214;2023-05-10T08:39:17;13.90;;;7.20;;
30398;SDS011;17195;50.838;7.214;2023-05-10T08:41:43;11.57;;;7.05;;
30398;SDS011;17195;50.838;7.214;2023-05-10T08:44:10;9.27;;;6.30;;
30398;SDS011;17195;50.838;7.214;2023-05-10T08:46:36;12.02;;;6.47;;
30398;SDS011;17195;50.838;7.214;2023-05-10T08:49:09;7.55;;;6.15;;
30398;SDS011;17195;50.838;7.214;2023-05-10T08:51:39;8.13;;;5.88;;
30398;SDS011;17195;50.838;7.214;2023-05-10T08:54:09;7.78;;;5.65;;
30398;SDS011;17195;50.838;7.214;2023-05-10T08:56:34;12.15;;;6.25;;
30398;SDS011;17195;50.838;7.214;2023-05-10T08:59:01;7.60;;;5.38;;
30398;SDS011;17195;50.838;7.214;2023-05-10T09:01:27;7.47;;;5.25;;
30398;SDS011;17195;50.838;7.214;2023-05-10T09:03:56;9.40;;;6.80;;
30398;SDS011;17195;50.838;7.214;2023-05-10T09:06:22;9.32;;;6.15;;
30398;SDS011;17195;50.838;7.214;2023-05-10T09:08:49;11.13;;;5.53;;
30398;SDS011;17195;50.838;7.214;2023-05-10T09:11:15;6.43;;;4.90;;
30398;SDS011;17195;50.838;7.214;2023-05-10T09:13:41;6.68;;;3.90;;
30398;SDS011;17195;50.838;7.214;2023-05-10T09:16:08;7.60;;;4.22;;
30398;SDS011;17195;50.838;7.214;2023-05-10T09:18:34;9.52;;;5.00;;
30398;SDS011;17195;50.838;7.214;2023-05-10T09:21:00;5.03;;;3.88;;
30398;SDS011;17195;50.838;7.214;2023-05-10T09:23:25;6.03;;;3.67;;
30398;SDS011;17195;50.838;7.214;2023-05-10T09:26:03;5.18;;;3.60;;
30398;SDS011;17195;50.838;7.214;2023-05-10T09:29:12;8.02;;;3.45;;
30398;SDS011;17195;50.838;7.214;2023-05-10T09:31:20;3.75;;;2.72;;
30398;SDS011;17195;50.838;7.214;2023-05-10T09:33:46;5.38;;;2.65;;
30398;SDS011;17195;50.838;7.214;2023-05-10T09:36:13;4.35;;;3.25;;
30398;SDS011;17195;50.838;7.214;2023-05-10T09:38:45;7.65;;;3.25;;
30398;SDS011;17195;50.838;7.214;2023-05-10T09:41:20;2.95;;;2.20;;
30398;SDS011;17195;50.838;7.214;2023-05-10T09:43:47;4.50;;;2.33;;
30398;SDS011;17195;50.838;7.214;2023-05-10T09:46:13;3.85;;;2.10;;
30398;SDS011;17195;50.838;7.214;2023-05-10T09:48:44;4.63;;;2.20;;
30398;SDS011;17195;50.838;7.214;2023-05-10T09:51:29;7.53;;;2.90;;
30398;SDS011;17195;50.838;7.214;2023-05-10T09:54:10;4.93;;;2.20;;
30398;SDS011;17195;50.838;7.214;2023-05-10T09:56:40;2.30;;;1.75;;
30398;SDS011;17195;50.838;7.214;2023-05-10T09:59:08;5.75;;;2.20;;
30398;SDS011;17195;50.838;7.214;2023-05-10T10:01:36;4.05;;;2.50;;
30398;SDS011;17195;50.838;7.214;2023-05-10T10:04:02;2.70;;;2.47;;
30398;SDS011;17195;50.838;7.214;2023-05-10T10:06:34;3.80;;;2.90;;
30398;SDS011;17195;50.838;7.214;2023-05-10T10:09:01;3.42;;;2.63;;
30398;SDS011;17195;50.838;7.214;2023-05-10T10:11:27;5.20;;;3.28;;
30398;SDS011;17195;50.838;7.214;2023-05-10T10:13:53;3.70;;;3.30;;
30398;SDS011;17195;50.838;7.214;2023-05-10T10:16:20;5.72;;;2.80;;
30398;SDS011;17195;50.838;7.214;2023-05-10T10:18:45;5.60;;;3.55;;
30398;SDS011;17195;50.838;7.214;2023-05-10T10:21:13;4.03;;;3.63;;
30398;SDS011;17195;50.838;7.214;2023-05-10T10:23:39;5.38;;;3.92;;
30398;SDS011;17195;50.838;7.214;2023-05-10T10:26:05;5.20;;;3.38;;
30398;SDS011;17195;50.838;7.214;2023-05-10T10:31:15;6.03;;;4.53;;
30398;SDS011;17195;50.838;7.214;2023-05-10T10:33:51;4.88;;;3.63;;
30398;SDS011;17195;50.838;7.214;2023-05-10T10:36:32;7.40;;;4.65;;
30398;SDS011;17195;50.838;7.214;2023-05-10T10:39:10;12.48;;;5.68;;
30398;SDS011;17195;50.838;7.214;2023-05-10T10:41:40;7.45;;;5.63;;
30398;SDS011;17195;50.838;7.214;2023-05-10T10:47:04;7.00;;;5.75;;
30398;SDS011;17195;50.838;7.214;2023-05-10T10:52:23;10.73;;;7.65;;
30398;SDS011;17195;50.838;7.214;2023-05-10T10:57:25;13.70;;;7.25;;
30398;SDS011;17195;50.838;7.214;2023-05-10T10:59:51;17.42;;;8.57;;
30398;SDS011;17195;50.838;7.214;2023-05-10T11:07:51;14.73;;;8.70;;
30398;SDS011;17195;50.838;7.214;2023-05-10T11:10:21;13.80;;;7.93;;
30398;SDS011;17195;50.838;7.214;2023-05-10T11:13:00;13.07;;;8.73;;
30398;SDS011;17195;50.838;7.214;2023-05-10T11:15:33;13.52;;;8.63;;
30398;SDS011;17195;50.838;7.214;2023-05-10T11:18:19;11.02;;;8.20;;
30398;SDS011;17195;50.838;7.214;2023-05-10T11:20:51;13.70;;;9.17;;
30398;SDS011;17195;50.838;7.214;2023-05-10T11:23:20;14.63;;;9.45;;
30398;SDS011;17195;50.838;7.214;2023-05-10T11:25:46;13.93;;;8.18;;
30398;SDS011;17195;50.838;7.214;2023-05-10T11:28:13;14.48;;;8.30;;
30398;SDS011;17195;50.838;7.214;2023-05-10T11:30:42;13.88;;;8.45;;
30398;SDS011;17195;50.838;7.214;2023-05-10T11:33:09;11.88;;;8.27;;
30398;SDS011;17195;50.838;7.214;2023-05-10T11:35:40;10.60;;;7.57;;
30398;SDS011;17195;50.838;7.214;2023-05-10T11:38:07;10.32;;;7.63;;
30398;SDS011;17195;50.838;7.214;2023-05-10T11:40:33;8.50;;;6.53;;
30398;SDS011;17195;50.838;7.214;2023-05-10T11:42:59;12.80;;;6.07;;
30398;SDS011;17195;50.838;7.214;2023-05-10T11:45:25;11.63;;;5.93;;
30398;SDS011;17195;50.838;7.214;2023-05-10T11:47:51;10.73;;;5.45;;
30398;SDS011;17195;50.838;7.214;2023-05-10T11:50:17;8.35;;;5.30;;
30398;SDS011;17195;50.838;7.214;2023-05-10T11:52:43;5.80;;;4.35;;
30398;SDS011;17195;50.838;7.214;2023-05-10T11:55:08;6.90;;;3.95;;
30398;SDS011;17195;50.838;7.214;2023-05-10T11:57:35;6.63;;;4.97;;
30398;SDS011;17195;50.838;7.214;2023-05-10T12:00:00;8.57;;;4.97;;
30398;SDS011;17195;50.838;7.214;2023-05-10T12:02:28;7.57;;;5.65;;
30398;SDS011;17195;50.838;7.214;2023-05-10T12:04:55;6.18;;;5.18;;
30398;SDS011;17195;50.838;7.214;2023-05-10T12:07:20;6.15;;;4.57;;
30398;SDS011;17195;50.838;7.214;2023-05-10T12:12:41;4.75;;;3.90;;
30398;SDS011;17195;50.838;7.214;2023-05-10T12:17:46;4.10;;;2.83;;
30398;SDS011;17195;50.838;7.214;2023-05-10T12:20:21;3.88;;;2.67;;
30398;SDS011;17195;50.838;7.214;2023-05-10T12:22:53;3.13;;;2.55;;
30398;SDS011;17195;50.838;7.214;2023-05-10T12:25:20;2.53;;;2.33;;
30398;SDS011;17195;50.838;7.214;2023-05-10T12:27:51;4.60;;;2.28;;
30398;SDS011;17195;50.838;7.214;2023-05-10T12:30:21;2.30;;;2.10;;
30398;SDS011;17195;50.838;7.214;2023-05-10T12:32:47;3.15;;;2.17;;
30398;SDS011;17195;50.838;7.214;2023-05-10T12:35:13;3.15;;;2.17;;
30398;SDS011;17195;50.838;7.214;2023-05-10T12:37:39;3.03;;;1.77;;
30398;SDS011;17195;50.838;7.214;2023-05-10T12:40:05;2.38;;;1.80;;
30398;SDS011;17195;50.838;7.214;2023-05-10T12:42:33;2.17;;;1.95;;
30398;SDS011;17195;50.838;7.214;2023-05-10T12:44:59;2.42;;;1.80;;
30398;SDS011;17195;50.838;7.214;2023-05-10T12:47:24;1.80;;;1.70;;
30398;SDS011;17195;50.838;7.214;2023-05-10T12:49:50;1.50;;;1.40;;
30398;SDS011;17195;50.838;7.214;2023-05-10T12:52:16;1.95;;;1.65;;
30398;SDS011;17195;50.838;7.214;2023-05-10T12:54:41;2.30;;;1.40;;
30398;SDS011;17195;50.838;7.214;2023-05-10T12:57:07;2.15;;;1.50;;
30398;SDS011;17195;50.838;7.214;2023-05-10T12:59:33;1.98;;;1.80;;
30398;SDS011;17195;50.838;7.214;2023-05-10T13:01:58;2.10;;;1.60;;
30398;SDS011;17195;50.838;7.214;2023-05-10T13:04:24;1.75;;;1.60;;
30398;SDS011;17195;50.838;7.214;2023-05-10T13:06:51;2.17;;;1.50;;
30398;SDS011;17195;50.838;7.214;2023-05-10T13:09:16;2.97;;;1.48;;
30398;SDS011;17195;50.838;7.214;2023-05-10T13:11:42;2.28;;;1.60;;
30398;SDS011;17195;50.838;7.214;2023-05-10T13:14:08;2.35;;;1.45;;
30398;SDS011;17195;50.838;7.214;2023-05-10T13:16:33;1.40;;;1.30;;
30398;SDS011;17195;50.838;7.214;2023-05-10T13:18:59;2.60;;;1.30;;
30398;SDS011;17195;50.838;7.214;2023-05-10T13:21:25;2.08;;;1.42;;
30398;SDS011;17195;50.838;7.214;2023-05-10T13:23:50;1.67;;;1.15;;
30398;SDS011;17195;50.838;7.214;2023-05-10T13:26:16;1.88;;;1.30;;
30398;SDS011;17195;50.838;7.214;2023-05-10T13:28:42;1.60;;;1.40;;
30398;SDS011;17195;50.838;7.214;2023-05-10T13:31:08;2.03;;;1.30;;
30398;SDS011;17195;50.838;7.214;2023-05-10T13:33:33;1.40;;;1.27;;
30398;SDS011;17195;50.838;7.214;2023-05-10T13:35:59;1.40;;;1.08;;
30398;SDS011;17195;50.838;7.214;2023-05-10T13:38:25;2.50;;;1.17;;
30398;SDS011;17195;50.838;7.214;2023-05-10T13:40:50;1.45;;;0.98;;
30398;SDS011;17195;50.838;7.214;2023-05-10T13:43:17;1.75;;;1.10;;
30398;SDS011;17195;50.838;7.214;2023-05-10T13:45:43;2.35;;;1.10;;
30398;SDS011;17195;50.838;7.214;2023-05-10T13:48:09;1.40;;;1.08;;
30398;SDS011;17195;50.838;7.214;2023-05-10T13:50:34;1.20;;;1.10;;
30398;SDS011;17195;50.838;7.214;2023-05-10T13:53:00;1.45;;;1.00;;
30398;SDS011;17195;50.838;7.214;2023-05-10T13:55:26;2.97;;;1.73;;
30398;SDS011;17195;50.838;7.214;2023-05-10T13:57:52;2.83;;;1.17;;
30398;SDS011;17195;50.838;7.214;2023-05-10T14:00:17;1.45;;;1.23;;
30398;SDS011;17195;50.838;7.214;2023-05-10T14:02:43;1.90;;;1.30;;
30398;SDS011;17195;50.838;7.214;2023-05-10T14:05:09;2.38;;;1.10;;
30398;SDS011;17195;50.838;7.214;2023-05-10T14:07:34;1.75;;;1.35;;
30398;SDS011;17195;50.838;7.214;2023-05-10T14:10:00;2.15;;;1.58;;
30398;SDS011;17195;50.838;7.214;2023-05-10T14:12:26;2.05;;;1.38;;
30398;SDS011;17195;50.838;7.214;2023-05-10T14:14:52;1.40;;;1.30;;
30398;SDS011;17195;50.838;7.214;2023-05-10T14:17:17;1.50;;;1.40;;
30398;SDS011;17195;50.838;7.214;2023-05-10T14:19:43;1.83;;;1.48;;
30398;SDS011;17195;50.838;7.214;2023-05-10T14:22:08;2.40;;;1.58;;
30398;SDS011;17195;50.838;7.214;2023-05-10T14:24:34;2.17;;;1.83;;
30398;SDS011;17195;50.838;7.214;2023-05-10T14:27:00;2.33;;;1.60;;
30398;SDS011;17195;50.838;7.214;2023-05-10T14:29:25;3.78;;;1.70;;
30398;SDS011;17195;50.838;7.214;2023-05-10T14:31:51;5.47;;;1.83;;
30398;SDS011;17195;50.838;7.214;2023-05-10T14:34:16;4.53;;;1.60;;
30398;SDS011;17195;50.838;7.214;2023-05-10T14:36:42;3.35;;;1.63;;
30398;SDS011;17195;50.838;7.214;2023-05-10T14:39:07;3.53;;;1.73;;
30398;SDS011;17195;50.838;7.214;2023-05-10T14:41:35;2.10;;;0.93;;
30398;SDS011;17195;50.838;7.214;2023-05-10T14:44:00;1.75;;;1.30;;
30398;SDS011;17195;50.838;7.214;2023-05-10T14:46:28;3.22;;;1.15;;
30398;SDS011;17195;50.838;7.214;2023-05-10T14:48:54;2.25;;;1.35;;
30398;SDS011;17195;50.838;7.214;2023-05-10T14:51:20;1.77;;;1.27;;
30398;SDS011;17195;50.838;7.214;2023-05-10T14:53:47;3.55;;;1.30;;
30398;SDS011;17195;50.838;7.214;2023-05-10T14:56:13;1.27;;;1.05;;
30398;SDS011;17195;50.838;7.214;2023-05-10T14:58:39;2.45;;;1.13;;
30398;SDS011;17195;50.838;7.214;2023-05-10T15:01:04;3.72;;;1.20;;
30398;SDS011;17195;50.838;7.214;2023-05-10T15:03:30;1.00;;;0.93;;
30398;SDS011;17195;50.838;7.214;2023-05-10T15:05:56;2.88;;;1.50;;
30398;SDS011;17195;50.838;7.214;2023-05-10T15:08:23;2.22;;;1.17;;
30398;SDS011;17195;50.838;7.214;2023-05-10T15:10:49;2.65;;;1.23;;
30398;SDS011;17195;50.838;7.214;2023-05-10T15:13:15;3.47;;;2.03;;
30398;SDS011;17195;50.838;7.214;2023-05-10T15:15:41;1.75;;;1.33;;